Hiroshima, Japan
Current Conditions -  °F | °C
As of 11:55 AM on Sunday 26 Oct 2014 (Local Time) from RJOI Reporting Station
Broken Clouds Broken Clouds  
Wind Chill: 71°   Ceiling: 7000
Heat Index: 71°   Visibility: 6mi
Dew Point: 59°   Wind: 3mph
Humidity: 66%   Direction: 80°E
Pressure: 30.09"   Gusts: NA
Location:  34.39°N, 132.44°E
Report Text: RJOI 260255Z 08003KT 9999 FEW015 SCT025 BKN070 22/15 A3009 RMK SLP190 T02170150 58017
Loading
Personal Weather Stations






























Interactive Weather Map
Tropical Storm Tracking
New forecast layout! Learn more

10-Day Weather Forecast

Advertisements
Track Severe Weather on mobile